Pagina principale
METAR-TAF:

METAR-TAF

Aeroporti :

Brazza, Croazia

latitudine: 43-17-09N, longitudine: 016-40-47E, altezza: 541 m

METAR: mancante

Ora: 04:29 (02:29 UTC)

Previsione

Il bollettino è stato emesso 15 ore e 4 minuti fa, alle 11:25 UTC
Previsione valida dal 20 alle 12 UTC al 21 alle 12 UTC
Vento 10 kt da nord-ovest
Visibilità 10 km o più
nessuna nube inferiore a 1500 m e nessun cumulonembo
Evoluzione graduale
dal 20 alle 16 UTC al 20 alle 18 UTC
Vento 9 kt da nord/nord-est
Evoluzione graduale
dal 20 alle 23 UTC al 21 alle 01 UTC
Vento 7 kt da est
Probabilità 30%
dal 21 alle 09 UTC al 21 alle 12 UTC
Vento 10 kt da sud/sud-est

TAF: LDSB 201125Z 2012/2112 32010KT CAVOK TX20/2012Z TN12/2105Z BECMG 2016/2018 02009KT BECMG 2023/2101 09007KT PROB30 2109/2112 16010KT

Osservazioni e previsioni meteorologiche di più di 4000 aeroporti (messaggi METAR e TAF).

Le stazioni disponibili sono rappresentate dai dischi gialli e rossi sulla carta.

Puntare il mouse per vedere il nome della stazione.

Clicca sopra per visualizzare le osservazioni e previsioni meteorologiche.

Per cambiare la mappa : fare clic sui pulsanti verdi con una croce nera per ingrandire, il pulsante verde con un trattino per diminuire, o sulla freccia verde per le mappe adiacenti.


METAR-TAF: